Time;durP1;ratioP1;P1;durP2;ratioP2;P2;SDS_P1;SDS_P2;PMS_P1;PMS_P2;Temp;Humidity;BMP_temperature;BMP_pressure;BME280_temperature;BME280_humidity;BME280_pressure;Samples;Min_cycle;Max_cycle;Signal;HPM_P1;HPM_P2
2021/07/01 00:00:26;;;;;;;;;4.67;4.67;;;;;24.92;57.94;97839.53;5026842;27;104105;-81
2021/07/01 00:02:53;;;;;;;;;7.33;6.00;;;;;24.85;57.85;97837.19;5014001;27;102140;-82
2021/07/01 00:05:33;;;;;;;;;7.00;5.00;;;;;24.98;58.03;97861.25;5007971;27;102192;-81
2021/07/01 00:08:04;;;;;;;;;6.00;5.00;;;;;24.87;58.07;97846.81;5037501;27;101889;-81
2021/07/01 00:10:38;;;;;;;;;5.00;5.00;;;;;24.87;57.98;97844.06;5044666;27;109343;-82
2021/07/01 00:13:15;;;;;;;;;3.67;3.67;;;;;24.84;58.05;97847.44;4956109;27;102590;-81
2021/07/01 00:15:51;;;;;;;;;5.67;5.33;;;;;24.94;57.78;97853.88;5029875;27;102125;-82
2021/07/01 00:18:25;;;;;;;;;7.00;6.00;;;;;24.94;57.43;97849.16;5037916;27;102371;-82
2021/07/01 00:20:59;;;;;;;;;5.00;5.00;;;;;24.83;57.39;97836.66;5006273;27;102038;-82
2021/07/01 00:23:35;;;;;;;;;5.33;4.33;;;;;24.92;57.15;97845.06;5038889;27;103346;-82
2021/07/01 00:26:10;;;;;;;;;5.33;5.33;;;;;24.86;57.00;97836.06;5031444;27;104269;-81
2021/07/01 00:28:50;;;;;;;;;5.00;5.00;;;;;24.88;57.04;97845.69;5014246;27;102312;-82
2021/07/01 00:31:25;;;;;;;;;6.33;5.00;;;;;24.76;57.17;97814.16;5032484;27;102999;-81
2021/07/01 00:33:57;;;;;;;;;4.67;4.67;;;;;24.86;57.35;97836.88;5038948;27;102096;-82
2021/07/01 00:36:42;;;;;;;;;4.67;4.67;;;;;24.86;56.67;97834.13;5003153;27;103030;-82
2021/07/01 00:39:17;;;;;;;;;6.00;6.00;;;;;24.84;56.55;97822.53;5007795;27;102036;-82
2021/07/01 00:41:49;;;;;;;;;5.00;5.00;;;;;24.82;56.75;97823.97;5023787;27;102726;-81
2021/07/01 00:44:20;;;;;;;;;6.00;4.00;;;;;24.75;56.69;97810.59;5034754;27;103168;-81
2021/07/01 00:46:47;;;;;;;;;5.00;5.00;;;;;24.82;56.40;97816.47;4998422;27;103263;-82
2021/07/01 00:49:14;;;;;;;;;7.00;6.00;;;;;24.72;56.39;97796.56;4995564;27;102221;-82
2021/07/01 00:51:42;;;;;;;;;6.00;5.33;;;;;24.76;56.50;97822.47;5003529;27;104246;-82
2021/07/01 00:54:09;;;;;;;;;6.00;6.00;;;;;24.69;56.38;97803.53;5020261;27;102958;-82
2021/07/01 00:56:39;;;;;;;;;6.00;6.00;;;;;24.75;56.12;97813.34;4998671;28;103971;-82
2021/07/01 00:59:09;;;;;;;;;4.33;4.33;;;;;24.76;56.77;97814.16;4990365;28;103832;-81
2021/07/01 01:01:37;;;;;;;;;4.00;4.00;;;;;24.71;56.42;97804.03;5001980;27;106384;-82
2021/07/01 01:04:04;;;;;;;;;6.00;5.67;;;;;24.67;55.93;97807.75;4988247;27;102493;-81
2021/07/01 01:06:31;;;;;;;;;4.67;4.33;;;;;24.74;56.03;97822.75;4933108;28;102191;-81
2021/07/01 01:08:59;;;;;;;;;6.67;6.67;;;;;24.73;55.76;97831.34;4976485;27;102472;-82
2021/07/01 01:11:30;;;;;;;;;7.50;6.00;;;;;24.73;55.98;97826.66;4999258;28;103111;-82
2021/07/01 01:14:06;;;;;;;;;5.00;5.00;;;;;24.60;55.72;97810.91;4994567;28;102604;-81
2021/07/01 01:16:39;;;;;;;;;5.33;5.00;;;;;24.63;55.83;97815.81;5001219;27;102470;-81
2021/07/01 01:19:12;;;;;;;;;5.33;5.33;;;;;24.61;55.41;97804.28;5021871;27;102102;-81
2021/07/01 01:21:51;;;;;;;;;5.00;5.00;;;;;24.59;55.40;97809.28;4989988;28;107316;-81
2021/07/01 01:24:25;;;;;;;;;6.67;6.00;;;;;24.66;55.86;97831.81;4950220;27;102201;-82
2021/07/01 01:27:09;;;;;;;;;6.67;5.33;;;;;24.59;56.08;97825.88;4991538;27;101808;-83
2021/07/01 01:29:45;;;;;;;;;3.00;3.00;;;;;24.62;55.77;97835.50;5008218;27;102176;-82
2021/07/01 01:32:20;;;;;;;;;6.00;6.00;;;;;24.58;55.31;97824.25;5002753;27;106209;-80
2021/07/01 01:34:54;;;;;;;;;6.00;6.00;;;;;24.53;55.71;97821.59;5008171;27;101893;-80
2021/07/01 01:37:33;;;;;;;;;6.67;5.00;;;;;24.61;55.71;97836.63;5013012;27;102089;-82
2021/07/01 01:40:08;;;;;;;;;6.67;5.00;;;;;24.59;55.75;97836.91;4992265;27;104923;-81
2021/07/01 01:42:37;;;;;;;;;5.00;4.33;;;;;24.54;55.36;97837.03;4994766;27;103114;-81
2021/07/01 01:45:10;;;;;;;;;5.00;4.67;;;;;24.61;55.65;97840.22;4984932;27;103198;-81
2021/07/01 01:47:50;;;;;;;;;6.67;6.67;;;;;24.52;54.50;97825.47;5000625;27;102549;-82
2021/07/01 01:50:22;;;;;;;;;7.33;6.33;;;;;24.51;55.53;97814.72;4997786;27;102180;-81
2021/07/01 01:52:53;;;;;;;;;10.00;7.00;;;;;24.62;55.32;97829.97;4999246;27;103193;-82
2021/07/01 01:55:22;;;;;;;;;8.33;6.00;;;;;24.41;56.26;97811.06;5022733;27;102010;-82
2021/07/01 01:57:49;;;;;;;;;6.00;6.00;;;;;24.56;55.47;97817.38;5002234;27;103488;-81
2021/07/01 02:00:30;;;;;;;;;6.33;6.33;;;;;24.52;55.90;97831.00;4942701;28;103625;-81
2021/07/01 02:02:58;;;;;;;;;6.00;5.33;;;;;24.52;55.24;97814.44;5007623;27;102996;-80
2021/07/01 02:05:26;;;;;;;;;6.67;6.00;;;;;24.50;55.23;97816.66;4998385;27;102131;-82
2021/07/01 02:07:53;;;;;;;;;6.00;6.00;;;;;24.44;55.60;97795.81;5003503;28;102089;-82
2021/07/01 02:10:28;;;;;;;;;6.67;6.67;;;;;24.48;55.17;97805.13;4984438;28;103494;-81
2021/07/01 02:12:55;;;;;;;;;6.00;6.00;;;;;24.52;55.56;97808.91;4997463;28;103207;-81
2021/07/01 02:15:24;;;;;;;;;6.67;5.67;;;;;24.52;54.85;97803.38;4998347;27;102179;-81
2021/07/01 02:17:52;;;;;;;;;8.67;7.00;;;;;24.52;55.39;97813.59;4985540;28;102186;-82
2021/07/01 02:20:21;;;;;;;;;5.67;5.33;;;;;24.53;55.82;97816.06;5009323;27;101724;-81
2021/07/01 02:22:49;;;;;;;;;6.67;6.67;;;;;24.54;54.93;97833.47;4988861;28;107680;-82
2021/07/01 02:25:16;;;;;;;;;5.00;4.67;;;;;24.44;55.16;97817.94;4978867;28;102630;-80
2021/07/01 02:27:43;;;;;;;;;7.33;7.33;;;;;24.52;55.26;97830.19;4959404;28;102655;-80
2021/07/01 02:30:12;;;;;;;;;6.00;4.00;;;;;24.37;55.23;97828.56;5001210;28;102166;-80
2021/07/01 02:32:40;;;;;;;;;7.00;7.00;;;;;24.50;55.01;97846.25;4975526;28;104146;-82
2021/07/01 02:35:28;;;;;;;;;5.67;5.67;;;;;24.38;54.90;97830.22;4903025;28;101462;-80
2021/07/01 02:37:55;;;;;;;;;6.67;6.33;;;;;24.37;55.02;97834.09;4983194;28;102234;-81
2021/07/01 02:40:22;;;;;;;;;8.00;8.00;;;;;24.43;55.29;97844.75;5001732;28;101990;-81
2021/07/01 02:42:49;;;;;;;;;7.00;6.00;;;;;24.34;55.62;97834.72;5005016;28;103215;-81
2021/07/01 02:45:16;;;;;;;;;8.00;6.33;;;;;24.37;55.04;97842.38;4990558;28;102340;-81
2021/07/01 02:47:43;;;;;;;;;6.00;6.00;;;;;24.33;54.94;97839.44;4988876;28;102105;-81
2021/07/01 02:50:11;;;;;;;;;5.00;5.00;;;;;24.43;54.77;97854.97;5002307;28;102752;-80
2021/07/01 02:52:38;;;;;;;;;5.33;5.33;;;;;24.30;55.29;97831.75;4996044;28;103065;-82
2021/07/01 02:55:09;;;;;;;;;6.67;6.33;;;;;24.37;55.58;97853.44;4982437;28;102007;-80
2021/07/01 02:57:37;;;;;;;;;8.00;7.00;;;;;24.37;55.01;97856.19;5000464;28;102629;-81
2021/07/01 03:00:06;;;;;;;;;8.33;7.00;;;;;24.23;55.80;97836.03;4989113;28;101943;-81
2021/07/01 03:02:34;;;;;;;;;8.33;6.33;;;;;24.33;55.18;97850.47;4975790;28;102954;-81
2021/07/01 03:05:02;;;;;;;;;8.00;7.00;;;;;24.31;54.36;97846.41;5002192;28;102410;-82
2021/07/01 03:07:29;;;;;;;;;5.67;5.67;;;;;24.30;54.59;97842.00;5000774;28;102904;-82
2021/07/01 03:09:57;;;;;;;;;8.33;6.00;;;;;24.31;54.77;97847.22;4993668;28;102402;-80
2021/07/01 03:12:24;;;;;;;;;7.33;5.67;;;;;24.34;54.58;97859.59;5004790;28;103186;-81
2021/07/01 03:14:51;;;;;;;;;7.00;6.67;;;;;24.33;54.70;97857.94;4994808;28;102599;-82
2021/07/01 03:17:18;;;;;;;;;7.00;6.00;;;;;24.24;54.87;97845.97;4985857;28;101873;-80
2021/07/01 03:19:45;;;;;;;;;8.33;6.00;;;;;24.20;55.07;97851.31;5001480;28;102240;-80
2021/07/01 03:22:13;;;;;;;;;5.67;5.00;;;;;24.22;54.87;97848.25;4995535;28;104401;-80
2021/07/01 03:24:40;;;;;;;;;6.33;6.33;;;;;24.19;55.15;97838.63;4996339;28;102869;-81
2021/07/01 03:27:07;;;;;;;;;4.00;4.00;;;;;24.16;54.61;97835.66;4999570;28;102130;-81
2021/07/01 03:29:34;;;;;;;;;7.00;6.33;;;;;24.29;54.62;97849.47;4997670;28;102515;-82
2021/07/01 03:32:01;;;;;;;;;6.67;6.00;;;;;24.18;55.15;97830.66;4973015;28;104258;-80
2021/07/01 03:34:29;;;;;;;;;5.00;5.00;;;;;24.12;55.07;97826.31;4968053;28;102121;-80
2021/07/01 03:36:56;;;;;;;;;6.00;6.00;;;;;24.12;55.57;97835.44;4999148;28;101588;-80
2021/07/01 03:39:23;;;;;;;;;8.33;7.00;;;;;24.26;54.91;97846.50;4988292;28;102249;-82
2021/07/01 03:41:51;;;;;;;;;4.67;4.67;;;;;24.18;54.81;97836.19;4998301;28;104080;-81
2021/07/01 03:44:19;;;;;;;;;6.00;6.00;;;;;24.11;55.52;97828.25;4988229;28;102434;-82
2021/07/01 03:46:47;;;;;;;;;6.00;6.00;;;;;24.16;55.90;97860.50;4970369;28;102139;-81
2021/07/01 03:49:14;;;;;;;;;6.00;6.00;;;;;24.23;54.85;97860.91;5001174;28;103749;-82
2021/07/01 03:51:41;;;;;;;;;6.00;5.67;;;;;24.20;55.09;97865.13;4997703;28;103295;-80
2021/07/01 03:54:08;;;;;;;;;6.00;5.33;;;;;24.25;54.84;97858.69;4977665;28;101786;-81
2021/07/01 03:56:41;;;;;;;;;5.67;5.67;;;;;24.19;55.11;97849.66;4992720;28;104397;-81
2021/07/01 03:59:12;;;;;;;;;4.33;3.33;;;;;24.16;55.25;97841.19;4995578;28;103612;-81
2021/07/01 04:01:40;;;;;;;;;5.33;5.33;;;;;24.10;55.54;97834.06;4996524;28;103185;-81
2021/07/01 04:04:07;;;;;;;;;6.67;6.00;;;;;24.22;54.50;97848.25;4988112;28;101295;-82
2021/07/01 04:06:34;;;;;;;;;6.00;5.00;;;;;24.10;55.01;97828.56;4989162;28;101763;-81
2021/07/01 04:09:03;;;;;;;;;6.33;6.00;;;;;24.11;55.86;97838.47;5007766;28;102196;-81
2021/07/01 04:11:30;;;;;;;;;8.67;6.33;;;;;24.11;54.87;97835.72;4975147;28;103091;-81
2021/07/01 04:13:57;;;;;;;;;5.00;5.00;;;;;24.15;55.44;97858.84;4988687;28;102418;-81
2021/07/01 04:16:25;;;;;;;;;6.00;6.00;;;;;24.14;55.39;97849.72;4992151;28;102100;-81
2021/07/01 04:18:52;;;;;;;;;5.67;5.00;;;;;24.07;55.35;97856.81;4989016;28;103240;-82
2021/07/01 04:21:24;;;;;;;;;5.33;5.00;;;;;24.11;55.15;97844.81;4995748;28;103605;-80
2021/07/01 04:23:54;;;;;;;;;7.67;6.00;;;;;24.01;55.86;97848.59;4986658;27;102351;-82
2021/07/01 04:26:21;;;;;;;;;5.00;5.00;;;;;24.11;54.51;97874.41;5001299;28;101840;-80
2021/07/01 04:28:51;;;;;;;;;6.00;6.00;;;;;24.09;54.76;97849.03;4982167;28;102185;-82
2021/07/01 04:31:19;;;;;;;;;5.00;5.00;;;;;24.15;55.10;97865.19;4997625;28;109108;-82
2021/07/01 04:33:47;;;;;;;;;5.00;5.00;;;;;24.10;55.50;97847.88;4990698;28;102481;-82
2021/07/01 04:36:14;;;;;;;;;6.00;6.00;;;;;24.09;55.52;97857.31;4985474;28;101790;-81
2021/07/01 04:38:41;;;;;;;;;5.00;5.00;;;;;24.15;55.35;97867.13;4982476;28;102582;-81
2021/07/01 04:41:08;;;;;;;;;6.33;5.00;;;;;24.19;54.58;97876.47;4989735;28;104645;-82
2021/07/01 04:43:35;;;;;;;;;6.00;6.00;;;;;24.11;54.94;97864.16;4988100;28;102161;-81
2021/07/01 04:46:02;;;;;;;;;6.67;5.00;;;;;24.11;54.71;97866.09;4993402;28;102496;-81
2021/07/01 04:48:30;;;;;;;;;6.00;4.33;;;;;24.09;54.81;97865.63;4976098;28;102734;-81
2021/07/01 04:50:57;;;;;;;;;5.00;5.00;;;;;24.19;55.28;97888.34;4995192;28;103210;-82
2021/07/01 04:53:24;;;;;;;;;5.33;5.33;;;;;24.11;56.26;97874.41;4979642;28;104523;-82
2021/07/01 04:55:51;;;;;;;;;5.00;4.00;;;;;24.07;55.32;97878.91;4987425;28;102198;-82
2021/07/01 04:58:19;;;;;;;;;4.33;4.33;;;;;24.15;55.83;97897.50;4987184;28;102367;-82
2021/07/01 05:00:48;;;;;;;;;5.00;5.00;;;;;24.14;55.38;97891.16;4977810;28;103205;-82
2021/07/01 05:03:15;;;;;;;;;4.00;4.00;;;;;24.06;55.60;97882.78;4985279;28;102538;-82
2021/07/01 05:05:42;;;;;;;;;7.00;7.00;;;;;24.06;55.38;97891.88;5004343;28;102204;-81
2021/07/01 05:08:10;;;;;;;;;6.00;6.00;;;;;24.12;55.29;97896.19;5004226;28;101617;-81
2021/07/01 05:10:37;;;;;;;;;5.33;4.67;;;;;24.06;55.35;97893.81;4988486;28;103003;-81
2021/07/01 05:13:04;;;;;;;;;5.00;5.00;;;;;24.04;55.17;97885.03;5004320;28;104572;-81
2021/07/01 05:15:31;;;;;;;;;6.00;4.67;;;;;24.04;55.49;97883.09;4999688;28;102784;-82
2021/07/01 05:17:58;;;;;;;;;6.00;5.00;;;;;24.11;55.81;97893.72;5005495;28;102240;-83
2021/07/01 05:20:27;;;;;;;;;5.67;4.67;;;;;24.10;55.49;97892.09;4993902;28;103105;-81
2021/07/01 05:22:54;;;;;;;;;5.67;5.00;;;;;24.11;55.57;97894.56;4999745;28;105695;-82
2021/07/01 05:25:24;;;;;;;;;5.33;4.33;;;;;24.15;55.50;97903.03;4981912;28;105359;-82
2021/07/01 05:27:57;;;;;;;;;4.00;4.00;;;;;24.12;56.47;97903.66;4992553;27;102101;-82
2021/07/01 05:30:25;;;;;;;;;4.67;3.67;;;;;24.09;56.90;97907.03;4993361;28;102711;-82
2021/07/01 05:32:52;;;;;;;;;5.00;4.00;;;;;24.07;56.31;97895.47;4995932;28;102082;-82
2021/07/01 05:35:19;;;;;;;;;5.00;4.67;;;;;24.06;56.25;97897.41;4970885;28;103325;-83
2021/07/01 05:37:46;;;;;;;;;5.00;3.33;;;;;24.00;55.76;97885.63;4976438;28;103492;-81
2021/07/01 05:40:15;;;;;;;;;5.00;5.00;;;;;24.13;55.95;97914.41;4969166;28;103352;-81
2021/07/01 05:42:43;;;;;;;;;6.00;5.00;;;;;24.09;56.17;97912.56;4979136;28;102873;-82
2021/07/01 05:45:23;;;;;;;;;6.00;5.33;;;;;24.10;56.18;97916.94;4941876;28;101833;-81
2021/07/01 05:47:51;;;;;;;;;4.33;4.33;;;;;24.12;55.86;97918.28;4979256;28;102437;-81
2021/07/01 05:50:18;;;;;;;;;5.00;5.00;;;;;23.99;55.59;97889.53;4964983;28;103079;-82
2021/07/01 05:52:49;;;;;;;;;3.67;3.33;;;;;24.12;55.88;97914.72;4974903;28;102270;-81
2021/07/01 05:55:16;;;;;;;;;4.00;3.33;;;;;24.11;55.89;97913.06;4960083;28;102395;-81
2021/07/01 05:57:43;;;;;;;;;5.00;4.00;;;;;24.05;55.87;97909.56;4967177;28;101839;-80
2021/07/01 06:00:11;;;;;;;;;4.00;4.00;;;;;24.04;56.03;97907.13;4958603;28;103091;-81
2021/07/01 06:02:38;;;;;;;;;5.00;5.00;;;;;23.96;57.00;97895.66;4958806;28;101603;-82
2021/07/01 06:05:11;;;;;;;;;6.00;4.67;;;;;23.97;55.98;97889.00;4970811;28;109358;-81
2021/07/01 06:07:40;;;;;;;;;5.33;5.00;;;;;23.96;56.27;97892.88;4974246;28;102770;-81
2021/07/01 06:10:07;;;;;;;;;5.67;5.00;;;;;23.96;56.42;97901.19;4976634;28;104072;-82
2021/07/01 06:12:35;;;;;;;;;3.00;3.00;;;;;23.93;55.48;97896.28;4980985;28;101630;-82
2021/07/01 06:15:03;;;;;;;;;6.33;5.67;;;;;24.08;56.49;97925.56;4962295;28;102776;-81
2021/07/01 06:17:33;;;;;;;;;6.67;4.00;;;;;24.06;56.44;97915.91;4976866;28;102460;-81
2021/07/01 06:20:08;;;;;;;;;3.67;3.67;;;;;23.94;56.71;97902.63;4972351;28;104460;-80
2021/07/01 06:22:35;;;;;;;;;5.00;4.33;;;;;24.06;56.13;97932.50;4961079;27;102694;-83
2021/07/01 06:25:04;;;;;;;;;3.33;3.00;;;;;24.08;55.87;97931.09;4981848;28;103387;-81
2021/07/01 06:27:38;;;;;;;;;5.00;4.67;;;;;24.03;56.20;97922.88;4971536;28;103284;-81
2021/07/01 06:30:15;;;;;;;;;4.00;4.00;;;;;24.10;55.96;97923.28;4977013;28;104179;-82
2021/07/01 06:32:46;;;;;;;;;4.67;4.00;;;;;24.01;55.62;97925.94;4965672;28;101471;-81
2021/07/01 06:35:19;;;;;;;;;4.33;4.33;;;;;24.11;56.62;97921.34;4980368;28;103295;-81
2021/07/01 06:37:46;;;;;;;;;3.00;3.00;;;;;24.07;56.25;97929.44;4992943;28;103228;-81
2021/07/01 06:40:14;;;;;;;;;3.00;1.00;;;;;24.11;55.72;97932.41;4984256;28;102478;-81
2021/07/01 06:42:53;;;;;;;;;4.00;4.00;;;;;24.02;55.86;97912.97;4972800;28;103657;-82
2021/07/01 06:45:20;;;;;;;;;4.00;4.00;;;;;24.12;56.51;97932.09;4959582;28;102206;-82
2021/07/01 06:47:49;;;;;;;;;3.67;3.33;;;;;24.09;55.76;97940.19;4980660;28;102877;-82
2021/07/01 06:50:18;;;;;;;;;3.00;3.00;;;;;24.06;56.45;97932.50;4972545;28;103079;-82
2021/07/01 06:52:45;;;;;;;;;3.00;2.00;;;;;24.13;55.69;97932.94;4967189;28;101964;-82
2021/07/01 06:55:15;;;;;;;;;3.00;3.00;;;;;24.00;56.01;97924.28;4975108;28;103685;-83
2021/07/01 06:57:56;;;;;;;;;2.00;2.00;;;;;24.12;56.27;97939.56;4989784;28;102384;-80
2021/07/01 07:00:23;;;;;;;;;4.33;4.00;;;;;23.98;56.06;97932.09;4973105;28;110271;-81
2021/07/01 07:02:51;;;;;;;;;3.00;3.00;;;;;24.11;56.03;97926.88;4993606;28;101575;-80
2021/07/01 07:05:19;;;;;;;;;3.00;2.33;;;;;24.12;56.12;97931.28;4987986;28;103142;-81
2021/07/01 07:07:47;;;;;;;;;3.00;2.67;;;;;24.07;56.39;97928.63;5001636;28;101957;-82
2021/07/01 07:10:28;;;;;;;;;3.00;3.00;;;;;24.12;56.23;97937.63;4968167;28;105505;-82
2021/07/01 07:12:56;;;;;;;;;2.00;2.00;;;;;23.98;57.29;97925.75;4986463;28;102152;-81
2021/07/01 07:15:29;;;;;;;;;4.33;3.00;;;;;24.11;56.58;97951.75;5002128;28;102152;-81
2021/07/01 07:18:31;;;;;;;;;3.00;2.00;;;;;24.01;56.46;97931.47;5002781;28;102529;-80
2021/07/01 07:20:59;;;;;;;;;3.67;3.00;;;;;24.11;56.12;97948.97;4890645;28;107827;-81
2021/07/01 07:23:30;;;;;;;;;2.00;2.00;;;;;24.12;56.62;97958.91;4991074;28;101762;-81
2021/07/01 07:25:58;;;;;;;;;4.00;3.00;;;;;24.12;56.10;97961.69;4977016;28;102044;-81
2021/07/01 07:28:32;;;;;;;;;2.00;2.00;;;;;24.11;56.23;97952.56;4964069;28;102863;-82
2021/07/01 07:30:59;;;;;;;;;3.00;2.00;;;;;24.01;56.41;97944.47;4969748;28;103091;-82
2021/07/01 07:33:27;;;;;;;;;3.00;3.00;;;;;24.00;56.71;97943.63;4994700;28;101703;-82
2021/07/01 07:35:55;;;;;;;;;3.00;2.33;;;;;24.04;56.63;97943.03;4999094;27;102667;-81
2021/07/01 07:38:24;;;;;;;;;2.00;2.00;;;;;24.05;56.87;97952.94;4997001;27;102175;-82
2021/07/01 07:40:53;;;;;;;;;4.00;3.33;;;;;24.09;56.63;97960.31;4984380;28;103480;-82
2021/07/01 07:43:33;;;;;;;;;2.00;2.00;;;;;24.06;56.76;97960.13;4993270;28;102464;-82
2021/07/01 07:46:01;;;;;;;;;1.00;1.00;;;;;23.98;56.35;97948.66;4988711;28;101414;-81
2021/07/01 07:48:29;;;;;;;;;1.67;1.67;;;;;24.04;56.91;97943.88;4994718;28;105575;-82
2021/07/01 07:50:56;;;;;;;;;3.00;3.00;;;;;24.02;56.89;97938.63;4992227;28;103267;-81
2021/07/01 07:53:25;;;;;;;;;3.00;3.00;;;;;24.15;56.70;97963.81;4979837;28;102405;-80
2021/07/01 07:56:00;;;;;;;;;2.00;2.00;;;;;24.05;56.45;97944.66;4991445;28;101920;-81
2021/07/01 07:58:46;;;;;;;;;3.33;2.00;;;;;24.05;56.60;97948.25;4923875;28;101969;-81
2021/07/01 08:01:30;;;;;;;;;2.00;1.00;;;;;24.13;56.52;97955.84;5003979;28;108232;-81
2021/07/01 08:03:57;;;;;;;;;2.00;2.00;;;;;24.08;56.15;97950.41;4986833;28;102054;-81
2021/07/01 08:06:24;;;;;;;;;2.00;2.00;;;;;24.11;55.29;97954.50;4989500;28;103170;-82
2021/07/01 08:08:52;;;;;;;;;2.33;2.33;;;;;24.15;56.20;97963.81;4999064;28;102269;-82
2021/07/01 08:11:20;;;;;;;;;2.00;2.00;;;;;24.12;55.87;97972.72;4978407;28;103187;-82
2021/07/01 08:13:49;;;;;;;;;2.33;2.33;;;;;24.05;55.08;97958.47;5001020;28;102029;-82
2021/07/01 08:16:17;;;;;;;;;2.33;2.33;;;;;24.13;55.78;97960.56;5001747;28;103330;-83
2021/07/01 08:18:58;;;;;;;;;3.00;2.00;;;;;24.10;55.40;97956.44;4971566;28;102474;-81
2021/07/01 08:21:25;;;;;;;;;1.67;1.67;;;;;24.06;55.29;97955.41;4984709;28;109158;-81
2021/07/01 08:23:53;;;;;;;;;1.00;1.00;;;;;24.19;55.76;97975.94;4991500;28;102143;-82
2021/07/01 08:26:20;;;;;;;;;3.33;2.33;;;;;24.19;55.65;97962.13;4980074;28;102281;-80
2021/07/01 08:28:47;;;;;;;;;2.00;2.00;;;;;24.10;55.68;97944.56;5004327;28;102094;-81
2021/07/01 08:31:16;;;;;;;;;1.67;1.67;;;;;24.13;55.95;97927.41;5003616;27;108252;-81
2021/07/01 08:33:45;;;;;;;;;1.00;1.00;;;;;24.09;55.94;97923.63;5001786;28;102103;-80
2021/07/01 08:36:23;;;;;;;;;2.33;2.33;;;;;24.22;56.39;97942.19;4966090;28;102511;-81
2021/07/01 08:38:52;;;;;;;;;3.00;2.00;;;;;24.16;55.84;97933.16;4966068;28;102800;-81
2021/07/01 08:41:21;;;;;;;;;2.00;2.00;;;;;24.10;55.61;97923.28;4958031;28;103078;-80
2021/07/01 08:43:53;;;;;;;;;3.00;2.33;;;;;24.19;56.11;97945.53;4973886;28;102689;-82
2021/07/01 08:46:30;;;;;;;;;2.67;2.00;;;;;24.15;55.84;97934.25;4963505;28;102157;-82
2021/07/01 08:49:00;;;;;;;;;2.00;2.00;;;;;24.18;56.09;97950.25;4960144;28;103237;-82
2021/07/01 08:51:47;;;;;;;;;2.00;2.00;;;;;24.26;56.13;97965.31;4966775;28;108727;-81
2021/07/01 08:54:33;;;;;;;;;1.00;1.00;;;;;24.28;56.43;97963.03;4900914;28;101958;-80
2021/07/01 08:57:02;;;;;;;;;2.00;2.00;;;;;24.14;56.20;97937.31;4962533;28;102447;-82
2021/07/01 08:59:54;;;;;;;;;2.00;2.00;;;;;24.19;56.54;97938.06;4971607;28;108094;-82
2021/07/01 09:02:38;;;;;;;;;1.00;1.00;;;;;24.16;56.49;97938.69;4884441;28;103802;-81
2021/07/01 09:05:08;;;;;;;;;2.00;1.67;;;;;24.26;57.02;97959.78;4964358;28;101974;-82
2021/07/01 09:07:36;;;;;;;;;2.00;2.00;;;;;24.14;57.11;97940.06;4959961;28;102143;-82
2021/07/01 09:10:10;;;;;;;;;2.00;2.00;;;;;24.17;56.83;97936.75;4968604;28;102289;-82
2021/07/01 09:12:42;;;;;;;;;2.00;2.00;;;;;24.27;56.95;97953.16;4963955;28;103312;-81
2021/07/01 09:15:10;;;;;;;;;2.00;2.00;;;;;24.15;57.08;97936.19;4971703;28;101897;-82
2021/07/01 09:17:38;;;;;;;;;1.33;1.33;;;;;24.20;56.82;97952.72;4959247;28;103250;-81
2021/07/01 09:20:08;;;;;;;;;1.67;1.67;;;;;24.25;57.11;97974.72;4965690;28;101953;-81
2021/07/01 09:22:35;;;;;;;;;2.67;2.00;;;;;24.15;57.24;97963.81;4964590;28;103431;-82
2021/07/01 09:25:03;;;;;;;;;1.33;1.33;;;;;24.24;57.04;97981.34;4977773;28;101386;-83
2021/07/01 09:27:30;;;;;;;;;2.67;1.67;;;;;24.16;57.00;97971.84;4967222;28;102234;-82
2021/07/01 09:30:12;;;;;;;;;2.00;1.67;;;;;24.13;57.27;97972.44;4886996;28;104808;-81
2021/07/01 09:32:55;;;;;;;;;2.00;2.00;;;;;24.19;57.12;97981.44;4955824;28;103800;-81
2021/07/01 09:35:30;;;;;;;;;3.00;2.00;;;;;24.15;57.10;97986.75;4993806;28;102500;-82
2021/07/01 09:38:11;;;;;;;;;2.67;1.67;;;;;24.26;57.34;97996.53;4930261;28;102063;-81
2021/07/01 09:40:38;;;;;;;;;1.00;1.00;;;;;24.29;57.02;97989.56;4989503;28;102245;-82
2021/07/01 09:43:07;;;;;;;;;1.33;1.33;;;;;24.27;56.98;97981.56;4992474;28;104987;-81
2021/07/01 09:45:35;;;;;;;;;2.33;2.33;;;;;24.17;56.91;97961.63;4981081;28;102905;-80
2021/07/01 09:48:12;;;;;;;;;2.67;2.67;;;;;24.30;57.06;97980.16;5008101;28;101648;-80
2021/07/01 09:50:49;;;;;;;;;2.00;2.00;;;;;24.27;56.82;97969.72;5006048;27;102429;-81
2021/07/01 09:53:28;;;;;;;;;2.00;1.33;;;;;24.26;57.06;97968.06;4995518;28;109401;-81
2021/07/01 09:56:06;;;;;;;;;2.33;2.00;;;;;24.22;56.73;97962.34;4995320;28;102823;-81
2021/07/01 09:58:37;;;;;;;;;1.00;1.00;;;;;24.30;56.94;97980.16;5001666;28;102544;-82
2021/07/01 10:01:04;;;;;;;;;2.00;2.00;;;;;24.30;56.70;97977.38;4990958;28;102121;-80
2021/07/01 10:03:33;;;;;;;;;2.33;2.00;;;;;24.30;56.84;97961.63;5001712;28;103367;-81
2021/07/01 10:06:13;;;;;;;;;2.00;2.00;;;;;24.26;56.75;97951.50;4968908;28;101953;-79
2021/07/01 10:08:40;;;;;;;;;1.67;1.67;;;;;24.18;56.33;97938.41;4919829;28;102565;-80
2021/07/01 10:11:08;;;;;;;;;2.00;2.00;;;;;24.22;56.62;97944.94;4975308;28;102095;-80
2021/07/01 10:13:35;;;;;;;;;2.33;2.00;;;;;24.27;56.39;97972.47;4979287;28;103022;-80
2021/07/01 10:16:02;;;;;;;;;2.00;1.67;;;;;24.20;56.57;97966.53;4987088;28;103075;-83
2021/07/01 10:18:39;;;;;;;;;2.00;2.00;;;;;24.27;56.75;97975.25;4996873;28;101841;-81
2021/07/01 10:21:16;;;;;;;;;2.00;2.00;;;;;24.27;56.99;97983.53;4924239;28;102762;-80
2021/07/01 10:23:43;;;;;;;;;2.33;2.33;;;;;24.29;56.80;97978.50;5001872;28;103305;-80
2021/07/01 10:26:16;;;;;;;;;1.00;1.00;;;;;24.36;56.62;97996.31;4996443;28;101984;-80
2021/07/01 10:28:58;;;;;;;;;1.67;1.67;;;;;24.32;57.16;97983.41;4987769;28;102706;-82
2021/07/01 10:31:25;;;;;;;;;2.00;2.00;;;;;24.29;56.96;97975.75;4997425;28;102220;-82
2021/07/01 10:33:59;;;;;;;;;3.00;2.00;;;;;24.34;56.85;97978.41;4993006;28;103203;-81
2021/07/01 10:36:28;;;;;;;;;2.00;2.00;;;;;24.39;56.85;97983.84;5009074;28;102023;-81
2021/07/01 10:38:55;;;;;;;;;1.00;1.00;;;;;24.34;56.73;97981.19;4977035;28;101938;-83
2021/07/01 10:41:37;;;;;;;;;2.00;2.00;;;;;24.39;57.06;97983.84;4999669;28;101464;-84
2021/07/01 10:44:05;;;;;;;;;3.00;3.00;;;;;24.31;57.27;97970.75;4988796;27;107542;-82
2021/07/01 10:46:45;;;;;;;;;2.67;2.67;;;;;24.40;57.05;97977.22;5000423;28;102084;-81
2021/07/01 10:49:14;;;;;;;;;1.67;1.67;;;;;24.42;56.93;97981.28;5004107;28;102102;-81
2021/07/01 10:51:58;;;;;;;;;2.00;2.00;;;;;24.31;56.96;97956.94;4991925;28;101914;-81
2021/07/01 10:54:25;;;;;;;;;2.33;2.00;;;;;24.44;57.21;97978.22;4993626;28;103043;-80
2021/07/01 10:57:05;;;;;;;;;2.00;2.00;;;;;24.44;57.03;97969.94;4997791;28;102282;-81
2021/07/01 10:59:51;;;;;;;;;2.00;2.00;;;;;24.46;56.98;97970.44;4938065;28;102084;-83
2021/07/01 11:02:29;;;;;;;;;2.00;2.00;;;;;24.48;56.87;97970.97;4993482;28;101726;-81
2021/07/01 11:05:01;;;;;;;;;3.00;2.00;;;;;24.45;57.07;97966.06;4980570;28;107862;-81
2021/07/01 11:07:28;;;;;;;;;1.00;1.00;;;;;24.47;56.97;97962.97;5000483;28;102791;-82
2021/07/01 11:10:11;;;;;;;;;2.00;2.00;;;;;24.48;57.04;97959.91;4941397;28;101686;-82
2021/07/01 11:12:42;;;;;;;;;1.33;1.33;;;;;24.41;57.12;97953.94;5005809;28;101294;-81
2021/07/01 11:15:19;;;;;;;;;3.00;2.00;;;;;24.42;56.93;97941.78;4978371;28;102863;-81
2021/07/01 11:17:46;;;;;;;;;2.00;2.00;;;;;24.47;57.12;97947.19;4981695;28;102276;-81
2021/07/01 11:20:22;;;;;;;;;2.00;2.00;;;;;24.55;56.84;97952.00;5001053;28;101736;-82
2021/07/01 11:22:51;;;;;;;;;3.00;2.33;;;;;24.50;56.90;97943.81;5008985;28;102029;-81
2021/07/01 11:25:24;;;;;;;;;2.00;1.33;;;;;24.49;56.79;97935.84;4995274;28;103020;-81
2021/07/01 11:27:52;;;;;;;;;1.67;1.67;;;;;24.50;57.00;97930.00;4998363;28;102123;-80
2021/07/01 11:30:21;;;;;;;;;2.00;1.00;;;;;24.53;56.69;97932.16;5001209;28;101496;-82
2021/07/01 11:32:48;;;;;;;;;2.00;2.00;;;;;24.48;57.10;97912.91;4995676;28;101992;-81
2021/07/01 11:35:23;;;;;;;;;1.67;1.67;;;;;24.52;56.85;97927.75;4987791;28;103355;-81
2021/07/01 11:37:52;;;;;;;;;2.00;2.00;;;;;24.53;57.16;97942.41;4987116;28;102200;-82
2021/07/01 11:40:21;;;;;;;;;1.33;1.00;;;;;24.62;56.88;97949.66;5004279;27;101910;-82